sensor_id;sensor_type;location;lat;lon;timestamp;temperature;humidity
12289;DHT22;6207;49.308;7.336;2023-04-01T00:01:10;8.90;99.90
12289;DHT22;6207;49.308;7.336;2023-04-01T00:03:38;8.90;99.90
12289;DHT22;6207;49.308;7.336;2023-04-01T00:06:05;8.90;99.90
12289;DHT22;6207;49.308;7.336;2023-04-01T00:08:32;8.90;99.90
12289;DHT22;6207;49.308;7.336;2023-04-01T00:10:58;8.90;99.90
12289;DHT22;6207;49.308;7.336;2023-04-01T00:13:26;8.90;99.90
12289;DHT22;6207;49.308;7.336;2023-04-01T00:15:54;9.00;99.90
12289;DHT22;6207;49.308;7.336;2023-04-01T00:18:22;9.00;99.90
12289;DHT22;6207;49.308;7.336;2023-04-01T00:20:50;9.10;99.90
12289;DHT22;6207;49.308;7.336;2023-04-01T00:23:19;9.00;99.90
12289;DHT22;6207;49.308;7.336;2023-04-01T00:25:47;8.90;99.90
12289;DHT22;6207;49.308;7.336;2023-04-01T00:28:19;9.00;99.90
12289;DHT22;6207;49.308;7.336;2023-04-01T00:30:46;9.10;99.90
12289;DHT22;6207;49.308;7.336;2023-04-01T00:33:13;9.10;99.90
12289;DHT22;6207;49.308;7.336;2023-04-01T00:35:40;9.10;99.90
12289;DHT22;6207;49.308;7.336;2023-04-01T00:38:07;9.20;99.90
12289;DHT22;6207;49.308;7.336;2023-04-01T00:40:37;9.10;99.90
12289;DHT22;6207;49.308;7.336;2023-04-01T00:43:11;9.20;99.90
12289;DHT22;6207;49.308;7.336;2023-04-01T00:45:41;9.10;99.90
12289;DHT22;6207;49.308;7.336;2023-04-01T00:48:18;9.20;99.90
12289;DHT22;6207;49.308;7.336;2023-04-01T00:51:20;9.20;99.90
12289;DHT22;6207;49.308;7.336;2023-04-01T00:53:50;9.10;99.90
12289;DHT22;6207;49.308;7.336;2023-04-01T00:56:21;9.20;99.90
12289;DHT22;6207;49.308;7.336;2023-04-01T00:58:52;9.20;99.90
12289;DHT22;6207;49.308;7.336;2023-04-01T01:01:23;9.10;99.90
12289;DHT22;6207;49.308;7.336;2023-04-01T01:03:51;9.10;99.90
12289;DHT22;6207;49.308;7.336;2023-04-01T01:06:46;9.20;99.90
12289;DHT22;6207;49.308;7.336;2023-04-01T01:09:25;9.00;99.90
12289;DHT22;6207;49.308;7.336;2023-04-01T01:29:02;9.20;99.90
12289;DHT22;6207;49.308;7.336;2023-04-01T01:34:42;9.30;99.90
12289;DHT22;6207;49.308;7.336;2023-04-01T01:37:16;9.20;99.90
12289;DHT22;6207;49.308;7.336;2023-04-01T01:39:48;9.20;99.90
12289;DHT22;6207;49.308;7.336;2023-04-01T01:42:16;9.20;99.90
12289;DHT22;6207;49.308;7.336;2023-04-01T01:44:46;9.10;99.90
12289;DHT22;6207;49.308;7.336;2023-04-01T01:47:14;9.20;99.90
12289;DHT22;6207;49.308;7.336;2023-04-01T01:49:43;9.00;99.90
12289;DHT22;6207;49.308;7.336;2023-04-01T01:52:12;8.90;99.90
12289;DHT22;6207;49.308;7.336;2023-04-01T01:54:53;8.90;99.90
12289;DHT22;6207;49.308;7.336;2023-04-01T01:57:24;9.10;99.90
12289;DHT22;6207;49.308;7.336;2023-04-01T01:59:54;9.00;99.90
12289;DHT22;6207;49.308;7.336;2023-04-01T02:02:22;8.80;99.90
12289;DHT22;6207;49.308;7.336;2023-04-01T02:04:50;8.80;99.90
12289;DHT22;6207;49.308;7.336;2023-04-01T02:07:26;8.60;99.90
12289;DHT22;6207;49.308;7.336;2023-04-01T02:09:54;8.60;99.90
12289;DHT22;6207;49.308;7.336;2023-04-01T02:12:22;8.50;99.90
12289;DHT22;6207;49.308;7.336;2023-04-01T02:15:06;8.50;99.90
12289;DHT22;6207;49.308;7.336;2023-04-01T02:17:39;8.60;99.90
12289;DHT22;6207;49.308;7.336;2023-04-01T02:20:08;8.60;99.90
12289;DHT22;6207;49.308;7.336;2023-04-01T02:22:38;8.60;99.90
12289;DHT22;6207;49.308;7.336;2023-04-01T02:25:11;8.40;99.90
12289;DHT22;6207;49.308;7.336;2023-04-01T02:27:40;8.40;99.90
12289;DHT22;6207;49.308;7.336;2023-04-01T02:30:08;8.40;99.90
12289;DHT22;6207;49.308;7.336;2023-04-01T02:32:36;8.40;99.90
12289;DHT22;6207;49.308;7.336;2023-04-01T02:35:10;8.40;99.90
12289;DHT22;6207;49.308;7.336;2023-04-01T02:37:38;8.40;99.90
12289;DHT22;6207;49.308;7.336;2023-04-01T02:40:10;8.30;99.90
12289;DHT22;6207;49.308;7.336;2023-04-01T02:42:38;8.40;99.90
12289;DHT22;6207;49.308;7.336;2023-04-01T02:45:06;8.40;99.90
12289;DHT22;6207;49.308;7.336;2023-04-01T02:47:32;8.40;99.90
12289;DHT22;6207;49.308;7.336;2023-04-01T02:49:59;8.40;99.90
12289;DHT22;6207;49.308;7.336;2023-04-01T02:52:27;8.50;99.90
12289;DHT22;6207;49.308;7.336;2023-04-01T02:54:54;8.50;99.90
12289;DHT22;6207;49.308;7.336;2023-04-01T02:57:21;8.50;99.90
12289;DHT22;6207;49.308;7.336;2023-04-01T02:59:48;8.60;99.90
12289;DHT22;6207;49.308;7.336;2023-04-01T03:02:15;8.40;99.90
12289;DHT22;6207;49.308;7.336;2023-04-01T03:04:42;8.40;99.90
12289;DHT22;6207;49.308;7.336;2023-04-01T03:07:09;8.30;99.90
12289;DHT22;6207;49.308;7.336;2023-04-01T03:09:37;8.40;99.90
12289;DHT22;6207;49.308;7.336;2023-04-01T03:12:04;8.40;99.90
12289;DHT22;6207;49.308;7.336;2023-04-01T03:14:31;8.40;99.90
12289;DHT22;6207;49.308;7.336;2023-04-01T03:16:57;8.40;99.90
12289;DHT22;6207;49.308;7.336;2023-04-01T03:19:24;8.40;99.90
12289;DHT22;6207;49.308;7.336;2023-04-01T03:21:51;8.50;99.90
12289;DHT22;6207;49.308;7.336;2023-04-01T03:24:19;8.50;99.90
12289;DHT22;6207;49.308;7.336;2023-04-01T03:26:46;8.50;99.90
12289;DHT22;6207;49.308;7.336;2023-04-01T03:29:13;8.50;99.90
12289;DHT22;6207;49.308;7.336;2023-04-01T03:31:42;8.50;99.90
12289;DHT22;6207;49.308;7.336;2023-04-01T03:34:08;8.50;99.90
12289;DHT22;6207;49.308;7.336;2023-04-01T03:36:35;8.60;99.90
12289;DHT22;6207;49.308;7.336;2023-04-01T03:39:02;8.60;99.90
12289;DHT22;6207;49.308;7.336;2023-04-01T03:41:30;8.70;99.90
12289;DHT22;6207;49.308;7.336;2023-04-01T03:43:58;8.60;99.90
12289;DHT22;6207;49.308;7.336;2023-04-01T03:46:25;8.60;99.90
12289;DHT22;6207;49.308;7.336;2023-04-01T03:48:51;8.60;99.90
12289;DHT22;6207;49.308;7.336;2023-04-01T03:51:18;8.50;99.90
12289;DHT22;6207;49.308;7.336;2023-04-01T03:53:45;8.50;99.90
12289;DHT22;6207;49.308;7.336;2023-04-01T03:56:12;8.50;99.90
12289;DHT22;6207;49.308;7.336;2023-04-01T03:58:38;8.50;99.90
12289;DHT22;6207;49.308;7.336;2023-04-01T04:01:19;8.40;99.90
12289;DHT22;6207;49.308;7.336;2023-04-01T04:03:48;8.40;99.90
12289;DHT22;6207;49.308;7.336;2023-04-01T04:06:17;8.20;99.90
12289;DHT22;6207;49.308;7.336;2023-04-01T04:08:44;8.20;99.90
12289;DHT22;6207;49.308;7.336;2023-04-01T04:11:11;8.20;99.90
12289;DHT22;6207;49.308;7.336;2023-04-01T04:13:38;8.20;99.90
12289;DHT22;6207;49.308;7.336;2023-04-01T04:16:05;8.20;99.90
12289;DHT22;6207;49.308;7.336;2023-04-01T04:18:32;8.10;99.90
12289;DHT22;6207;49.308;7.336;2023-04-01T04:20:59;8.10;99.90
12289;DHT22;6207;49.308;7.336;2023-04-01T04:23:26;8.10;99.90
12289;DHT22;6207;49.308;7.336;2023-04-01T04:26:14;8.10;99.90
12289;DHT22;6207;49.308;7.336;2023-04-01T04:28:41;8.10;99.90
12289;DHT22;6207;49.308;7.336;2023-04-01T04:31:08;8.00;99.90
12289;DHT22;6207;49.308;7.336;2023-04-01T04:33:35;8.10;99.90
12289;DHT22;6207;49.308;7.336;2023-04-01T04:36:02;8.10;99.90
12289;DHT22;6207;49.308;7.336;2023-04-01T04:38:29;8.10;99.90
12289;DHT22;6207;49.308;7.336;2023-04-01T04:40:57;8.10;99.90
12289;DHT22;6207;49.308;7.336;2023-04-01T04:43:24;8.00;99.90
12289;DHT22;6207;49.308;7.336;2023-04-01T04:45:51;8.10;99.90
12289;DHT22;6207;49.308;7.336;2023-04-01T04:48:17;8.00;99.90
12289;DHT22;6207;49.308;7.336;2023-04-01T04:50:49;8.00;99.90
12289;DHT22;6207;49.308;7.336;2023-04-01T04:53:18;8.00;99.90
12289;DHT22;6207;49.308;7.336;2023-04-01T04:55:47;8.00;99.90
12289;DHT22;6207;49.308;7.336;2023-04-01T04:58:14;7.90;99.90
12289;DHT22;6207;49.308;7.336;2023-04-01T05:00:41;7.80;99.90
12289;DHT22;6207;49.308;7.336;2023-04-01T05:03:09;7.90;99.90
12289;DHT22;6207;49.308;7.336;2023-04-01T05:05:36;7.90;99.90
12289;DHT22;6207;49.308;7.336;2023-04-01T05:08:03;7.80;99.90
12289;DHT22;6207;49.308;7.336;2023-04-01T05:10:30;7.90;99.90
12289;DHT22;6207;49.308;7.336;2023-04-01T05:12:58;7.80;99.90
12289;DHT22;6207;49.308;7.336;2023-04-01T05:15:25;7.80;99.90
12289;DHT22;6207;49.308;7.336;2023-04-01T05:17:51;7.80;99.90
12289;DHT22;6207;49.308;7.336;2023-04-01T05:20:18;7.80;99.90
12289;DHT22;6207;49.308;7.336;2023-04-01T05:22:45;7.80;99.90
12289;DHT22;6207;49.308;7.336;2023-04-01T05:25:11;7.80;99.90
12289;DHT22;6207;49.308;7.336;2023-04-01T05:27:38;7.80;99.90
12289;DHT22;6207;49.308;7.336;2023-04-01T05:30:06;7.80;99.90
12289;DHT22;6207;49.308;7.336;2023-04-01T05:32:33;7.80;99.90
12289;DHT22;6207;49.308;7.336;2023-04-01T05:35:00;7.80;99.90
12289;DHT22;6207;49.308;7.336;2023-04-01T05:37:26;7.80;99.90
12289;DHT22;6207;49.308;7.336;2023-04-01T05:39:53;7.80;99.90
12289;DHT22;6207;49.308;7.336;2023-04-01T05:42:20;7.80;99.90
12289;DHT22;6207;49.308;7.336;2023-04-01T05:44:46;7.80;99.90
12289;DHT22;6207;49.308;7.336;2023-04-01T05:47:13;7.80;99.90
12289;DHT22;6207;49.308;7.336;2023-04-01T05:49:40;7.80;99.90
12289;DHT22;6207;49.308;7.336;2023-04-01T05:52:07;7.80;99.90
12289;DHT22;6207;49.308;7.336;2023-04-01T05:54:34;7.80;99.90
12289;DHT22;6207;49.308;7.336;2023-04-01T05:57:01;7.80;99.90
12289;DHT22;6207;49.308;7.336;2023-04-01T05:59:27;7.80;99.90
12289;DHT22;6207;49.308;7.336;2023-04-01T06:01:54;7.80;99.90
12289;DHT22;6207;49.308;7.336;2023-04-01T06:04:21;7.80;99.90
12289;DHT22;6207;49.308;7.336;2023-04-01T06:06:47;7.70;99.90
12289;DHT22;6207;49.308;7.336;2023-04-01T06:20:07;7.80;99.90
12289;DHT22;6207;49.308;7.336;2023-04-01T06:31:10;7.80;99.90
12289;DHT22;6207;49.308;7.336;2023-04-01T06:39:33;7.80;99.90
12289;DHT22;6207;49.308;7.336;2023-04-01T06:42:31;7.80;99.90
12289;DHT22;6207;49.308;7.336;2023-04-01T06:45:20;7.80;99.90
12289;DHT22;6207;49.308;7.336;2023-04-01T06:51:24;7.90;99.90
12289;DHT22;6207;49.308;7.336;2023-04-01T06:54:01;7.90;99.90
12289;DHT22;6207;49.308;7.336;2023-04-01T06:56:29;7.90;99.90
12289;DHT22;6207;49.308;7.336;2023-04-01T06:59:07;7.90;99.90
12289;DHT22;6207;49.308;7.336;2023-04-01T07:01:41;8.00;99.90
12289;DHT22;6207;49.308;7.336;2023-04-01T07:04:19;8.00;99.90
12289;DHT22;6207;49.308;7.336;2023-04-01T07:06:57;8.00;99.90
12289;DHT22;6207;49.308;7.336;2023-04-01T07:09:30;8.00;99.90
12289;DHT22;6207;49.308;7.336;2023-04-01T07:12:02;8.00;99.90
12289;DHT22;6207;49.308;7.336;2023-04-01T07:14:40;8.00;99.90
12289;DHT22;6207;49.308;7.336;2023-04-01T07:17:15;7.90;99.90
12289;DHT22;6207;49.308;7.336;2023-04-01T07:22:34;7.90;99.90
12289;DHT22;6207;49.308;7.336;2023-04-01T07:25:13;8.00;99.90
12289;DHT22;6207;49.308;7.336;2023-04-01T07:27:45;8.00;99.90
12289;DHT22;6207;49.308;7.336;2023-04-01T07:30:22;8.10;99.90
12289;DHT22;6207;49.308;7.336;2023-04-01T07:35:52;8.00;99.90
12289;DHT22;6207;49.308;7.336;2023-04-01T07:41:32;8.10;99.90
12289;DHT22;6207;49.308;7.336;2023-04-01T07:44:33;8.10;99.90
12289;DHT22;6207;49.308;7.336;2023-04-01T07:55:23;8.30;99.90
12289;DHT22;6207;49.308;7.336;2023-04-01T07:58:56;8.30;99.90
12289;DHT22;6207;49.308;7.336;2023-04-01T08:09:06;8.50;99.90
12289;DHT22;6207;49.308;7.336;2023-04-01T08:11:47;8.50;99.90
12289;DHT22;6207;49.308;7.336;2023-04-01T08:22:30;8.60;99.90
12289;DHT22;6207;49.308;7.336;2023-04-01T08:24:58;8.60;99.90
12289;DHT22;6207;49.308;7.336;2023-04-01T08:27:36;8.70;99.90
12289;DHT22;6207;49.308;7.336;2023-04-01T08:30:15;8.60;99.90
12289;DHT22;6207;49.308;7.336;2023-04-01T08:32:48;8.70;99.90
12289;DHT22;6207;49.308;7.336;2023-04-01T08:35:40;8.70;99.90
12289;DHT22;6207;49.308;7.336;2023-04-01T08:38:21;8.70;99.90
12289;DHT22;6207;49.308;7.336;2023-04-01T08:40:57;8.70;99.90
12289;DHT22;6207;49.308;7.336;2023-04-01T08:49:15;8.80;99.90
12289;DHT22;6207;49.308;7.336;2023-04-01T08:52:07;8.80;99.90
12289;DHT22;6207;49.308;7.336;2023-04-01T08:55:11;8.90;99.90
12289;DHT22;6207;49.308;7.336;2023-04-01T08:58:07;8.90;99.90
12289;DHT22;6207;49.308;7.336;2023-04-01T09:00:54;9.00;99.90
12289;DHT22;6207;49.308;7.336;2023-04-01T09:03:43;8.80;99.90
12289;DHT22;6207;49.308;7.336;2023-04-01T09:23:41;8.90;99.90
12289;DHT22;6207;49.308;7.336;2023-04-01T09:42:43;9.10;99.90
12289;DHT22;6207;49.308;7.336;2023-04-01T09:45:17;9.10;99.90
12289;DHT22;6207;49.308;7.336;2023-04-01T09:48:14;9.00;99.90
12289;DHT22;6207;49.308;7.336;2023-04-01T09:59:20;9.00;99.90
12289;DHT22;6207;49.308;7.336;2023-04-01T10:10:19;9.20;99.90
12289;DHT22;6207;49.308;7.336;2023-04-01T10:25:15;9.10;99.90
12289;DHT22;6207;49.308;7.336;2023-04-01T10:39:04;9.20;99.90
12289;DHT22;6207;49.308;7.336;2023-04-01T10:42:11;9.40;99.90
12289;DHT22;6207;49.308;7.336;2023-04-01T10:45:18;9.40;99.90
12289;DHT22;6207;49.308;7.336;2023-04-01T10:53:15;9.50;99.90
12289;DHT22;6207;49.308;7.336;2023-04-01T11:02:10;9.50;99.90
12289;DHT22;6207;49.308;7.336;2023-04-01T11:05:33;9.40;99.90
12289;DHT22;6207;49.308;7.336;2023-04-01T11:16:47;9.50;99.90
12289;DHT22;6207;49.308;7.336;2023-04-01T11:19:51;9.60;99.90
12289;DHT22;6207;49.308;7.336;2023-04-01T11:22:36;9.60;99.90
12289;DHT22;6207;49.308;7.336;2023-04-01T11:25:34;9.50;99.90
12289;DHT22;6207;49.308;7.336;2023-04-01T11:31:11;9.50;99.90
12289;DHT22;6207;49.308;7.336;2023-04-01T11:53:59;9.80;99.90
12289;DHT22;6207;49.308;7.336;2023-04-01T12:01:59;9.80;99.90
12289;DHT22;6207;49.308;7.336;2023-04-01T12:09:49;9.70;99.90
12289;DHT22;6207;49.308;7.336;2023-04-01T12:12:59;9.70;99.90
12289;DHT22;6207;49.308;7.336;2023-04-01T12:18:23;9.60;99.90
12289;DHT22;6207;49.308;7.336;2023-04-01T12:28:50;9.70;99.90
12289;DHT22;6207;49.308;7.336;2023-04-01T12:32:09;9.60;99.90
12289;DHT22;6207;49.308;7.336;2023-04-01T12:46:06;9.60;99.90
12289;DHT22;6207;49.308;7.336;2023-04-01T12:48:47;9.70;99.90
12289;DHT22;6207;49.308;7.336;2023-04-01T12:54:42;9.60;99.90
12289;DHT22;6207;49.308;7.336;2023-04-01T12:57:36;9.50;99.90
12289;DHT22;6207;49.308;7.336;2023-04-01T13:13:47;9.60;99.90
12289;DHT22;6207;49.308;7.336;2023-04-01T13:16:35;9.60;99.90
12289;DHT22;6207;49.308;7.336;2023-04-01T13:21:51;9.70;99.90
12289;DHT22;6207;49.308;7.336;2023-04-01T13:30:03;9.70;99.90
12289;DHT22;6207;49.308;7.336;2023-04-01T13:32:44;9.70;99.90
12289;DHT22;6207;49.308;7.336;2023-04-01T13:35:28;9.60;99.90
12289;DHT22;6207;49.308;7.336;2023-04-01T13:38:06;9.70;99.90
12289;DHT22;6207;49.308;7.336;2023-04-01T13:43:35;9.70;99.90
12289;DHT22;6207;49.308;7.336;2023-04-01T13:46:42;9.70;99.90
12289;DHT22;6207;49.308;7.336;2023-04-01T14:05:48;9.80;99.90
12289;DHT22;6207;49.308;7.336;2023-04-01T14:08:42;9.70;99.90
12289;DHT22;6207;49.308;7.336;2023-04-01T14:11:45;9.70;99.90
12289;DHT22;6207;49.308;7.336;2023-04-01T14:22:42;9.60;99.90
12289;DHT22;6207;49.308;7.336;2023-04-01T14:25:30;9.60;99.90
12289;DHT22;6207;49.308;7.336;2023-04-01T14:28:24;9.50;99.90
12289;DHT22;6207;49.308;7.336;2023-04-01T14:34:00;9.40;99.90
12289;DHT22;6207;49.308;7.336;2023-04-01T14:36:41;9.40;99.90
12289;DHT22;6207;49.308;7.336;2023-04-01T14:42:09;9.20;99.90
12289;DHT22;6207;49.308;7.336;2023-04-01T14:50:30;9.10;99.90
12289;DHT22;6207;49.308;7.336;2023-04-01T14:55:53;9.10;99.90
12289;DHT22;6207;49.308;7.336;2023-04-01T14:58:23;9.10;99.90
12289;DHT22;6207;49.308;7.336;2023-04-01T15:01:23;9.30;99.90
12289;DHT22;6207;49.308;7.336;2023-04-01T15:03:55;9.30;99.90
12289;DHT22;6207;49.308;7.336;2023-04-01T15:06:30;9.30;99.90
12289;DHT22;6207;49.308;7.336;2023-04-01T15:12:03;9.40;99.90
12289;DHT22;6207;49.308;7.336;2023-04-01T15:34:39;9.80;99.90
12289;DHT22;6207;49.308;7.336;2023-04-01T15:51:54;9.50;99.90
12289;DHT22;6207;49.308;7.336;2023-04-01T15:57:39;9.30;99.90
12289;DHT22;6207;49.308;7.336;2023-04-01T16:05:30;9.00;99.90
12289;DHT22;6207;49.308;7.336;2023-04-01T16:21:14;8.80;99.90
12289;DHT22;6207;49.308;7.336;2023-04-01T16:24:10;8.80;99.90
12289;DHT22;6207;49.308;7.336;2023-04-01T16:26:53;8.80;99.90
12289;DHT22;6207;49.308;7.336;2023-04-01T16:37:43;8.90;99.90
12289;DHT22;6207;49.308;7.336;2023-04-01T16:40:15;9.10;99.90
12289;DHT22;6207;49.308;7.336;2023-04-01T16:48:01;9.10;99.90
12289;DHT22;6207;49.308;7.336;2023-04-01T16:51:09;9.10;99.90
12289;DHT22;6207;49.308;7.336;2023-04-01T16:56:24;9.10;99.90
12289;DHT22;6207;49.308;7.336;2023-04-01T17:01:43;8.90;99.90
12289;DHT22;6207;49.308;7.336;2023-04-01T17:07:18;8.90;99.90
12289;DHT22;6207;49.308;7.336;2023-04-01T17:12:47;8.90;99.90
12289;DHT22;6207;49.308;7.336;2023-04-01T17:20:46;8.80;99.90
12289;DHT22;6207;49.308;7.336;2023-04-01T17:29:23;8.80;99.90
12289;DHT22;6207;49.308;7.336;2023-04-01T17:45:36;8.70;99.90
12289;DHT22;6207;49.308;7.336;2023-04-01T17:51:09;8.70;99.90
12289;DHT22;6207;49.308;7.336;2023-04-01T17:53:50;8.60;99.90
12289;DHT22;6207;49.308;7.336;2023-04-01T17:59:38;8.60;99.90
12289;DHT22;6207;49.308;7.336;2023-04-01T18:05:14;8.60;99.90
12289;DHT22;6207;49.308;7.336;2023-04-01T18:08:09;8.60;99.90
12289;DHT22;6207;49.308;7.336;2023-04-01T18:11:11;8.60;99.90
12289;DHT22;6207;49.308;7.336;2023-04-01T18:27:47;8.60;99.90
12289;DHT22;6207;49.308;7.336;2023-04-01T18:30:18;8.60;99.90
12289;DHT22;6207;49.308;7.336;2023-04-01T18:33:04;8.60;99.90
12289;DHT22;6207;49.308;7.336;2023-04-01T18:35:50;8.60;99.90
12289;DHT22;6207;49.308;7.336;2023-04-01T18:38:30;8.50;99.90
12289;DHT22;6207;49.308;7.336;2023-04-01T18:44:22;8.50;99.90
12289;DHT22;6207;49.308;7.336;2023-04-01T18:50:30;8.60;99.90
12289;DHT22;6207;49.308;7.336;2023-04-01T18:53:15;8.50;99.90
12289;DHT22;6207;49.308;7.336;2023-04-01T18:56:08;8.50;99.90
12289;DHT22;6207;49.308;7.336;2023-04-01T18:58:51;8.60;99.90
12289;DHT22;6207;49.308;7.336;2023-04-01T19:01:28;8.60;99.90
12289;DHT22;6207;49.308;7.336;2023-04-01T19:04:37;8.60;99.90
12289;DHT22;6207;49.308;7.336;2023-04-01T19:10:44;8.60;99.90
12289;DHT22;6207;49.308;7.336;2023-04-01T19:18:54;8.60;99.90
12289;DHT22;6207;49.308;7.336;2023-04-01T19:21:47;8.60;99.90
12289;DHT22;6207;49.308;7.336;2023-04-01T19:29:51;8.60;99.90
12289;DHT22;6207;49.308;7.336;2023-04-01T19:36:00;8.60;99.90
12289;DHT22;6207;49.308;7.336;2023-04-01T19:47:18;8.60;99.90
12289;DHT22;6207;49.308;7.336;2023-04-01T19:50:06;8.50;99.90
12289;DHT22;6207;49.308;7.336;2023-04-01T19:52:42;8.50;99.90
12289;DHT22;6207;49.308;7.336;2023-04-01T19:57:58;8.50;99.90
12289;DHT22;6207;49.308;7.336;2023-04-01T20:00:43;8.50;99.90
12289;DHT22;6207;49.308;7.336;2023-04-01T20:39:04;8.60;99.90
12289;DHT22;6207;49.308;7.336;2023-04-01T20:44:55;8.60;99.90
12289;DHT22;6207;49.308;7.336;2023-04-01T20:50:24;8.60;99.90
12289;DHT22;6207;49.308;7.336;2023-04-01T20:53:21;8.60;99.90
12289;DHT22;6207;49.308;7.336;2023-04-01T21:07:55;8.60;99.90
12289;DHT22;6207;49.308;7.336;2023-04-01T21:10:43;8.60;99.90
12289;DHT22;6207;49.308;7.336;2023-04-01T21:13:44;8.60;99.90
12289;DHT22;6207;49.308;7.336;2023-04-01T21:16:44;8.60;99.90
12289;DHT22;6207;49.308;7.336;2023-04-01T21:36:09;8.50;99.90
12289;DHT22;6207;49.308;7.336;2023-04-01T21:38:51;8.50;99.90
12289;DHT22;6207;49.308;7.336;2023-04-01T21:50:01;8.50;99.90
12289;DHT22;6207;49.308;7.336;2023-04-01T21:58:56;8.40;99.90
12289;DHT22;6207;49.308;7.336;2023-04-01T22:05:00;8.40;99.90
12289;DHT22;6207;49.308;7.336;2023-04-01T22:10:41;8.30;99.90
12289;DHT22;6207;49.308;7.336;2023-04-01T22:13:20;8.30;99.90
12289;DHT22;6207;49.308;7.336;2023-04-01T22:16:02;8.30;99.90
12289;DHT22;6207;49.308;7.336;2023-04-01T22:18:34;8.30;99.90
12289;DHT22;6207;49.308;7.336;2023-04-01T22:24:06;8.20;99.90
12289;DHT22;6207;49.308;7.336;2023-04-01T22:26:57;8.20;99.90
12289;DHT22;6207;49.308;7.336;2023-04-01T22:29:36;8.20;99.90
12289;DHT22;6207;49.308;7.336;2023-04-01T22:32:16;8.20;99.90
12289;DHT22;6207;49.308;7.336;2023-04-01T22:37:45;8.10;99.90
12289;DHT22;6207;49.308;7.336;2023-04-01T22:48:50;8.00;99.90
12289;DHT22;6207;49.308;7.336;2023-04-01T22:51:39;8.10;99.90
12289;DHT22;6207;49.308;7.336;2023-04-01T22:54:26;8.10;99.90
12289;DHT22;6207;49.308;7.336;2023-04-01T22:57:04;8.10;99.90
12289;DHT22;6207;49.308;7.336;2023-04-01T22:59:51;8.00;99.90
12289;DHT22;6207;49.308;7.336;2023-04-01T23:02:34;8.00;99.90
12289;DHT22;6207;49.308;7.336;2023-04-01T23:05:05;8.00;99.90
12289;DHT22;6207;49.308;7.336;2023-04-01T23:08:25;8.10;99.90
12289;DHT22;6207;49.308;7.336;2023-04-01T23:10:59;8.00;99.90
12289;DHT22;6207;49.308;7.336;2023-04-01T23:13:36;7.90;99.90
12289;DHT22;6207;49.308;7.336;2023-04-01T23:16:05;8.00;99.90
12289;DHT22;6207;49.308;7.336;2023-04-01T23:18:50;8.00;99.90
12289;DHT22;6207;49.308;7.336;2023-04-01T23:24:00;8.00;99.90
12289;DHT22;6207;49.308;7.336;2023-04-01T23:26:43;8.10;99.90
12289;DHT22;6207;49.308;7.336;2023-04-01T23:29:17;8.10;99.90
12289;DHT22;6207;49.308;7.336;2023-04-01T23:31:48;8.10;99.90
12289;DHT22;6207;49.308;7.336;2023-04-01T23:34:33;8.10;99.90
12289;DHT22;6207;49.308;7.336;2023-04-01T23:37:10;8.10;99.90
12289;DHT22;6207;49.308;7.336;2023-04-01T23:40:10;8.10;99.90
12289;DHT22;6207;49.308;7.336;2023-04-01T23:42:40;8.10;99.90
12289;DHT22;6207;49.308;7.336;2023-04-01T23:45:16;8.10;99.90
12289;DHT22;6207;49.308;7.336;2023-04-01T23:47:47;8.10;99.90
12289;DHT22;6207;49.308;7.336;2023-04-01T23:50:21;8.10;99.90
12289;DHT22;6207;49.308;7.336;2023-04-01T23:53:04;8.10;99.90
12289;DHT22;6207;49.308;7.336;2023-04-01T23:55:40;8.10;99.90
